createdAt,value
2023-02-23T00:02:25.380Z,67.33
2023-02-23T00:07:46.192Z,66.83
2023-02-23T00:13:06.829Z,66.69
2023-02-23T00:18:30.239Z,66.66
2023-02-23T00:24:02.721Z,66.64
2023-02-23T00:29:24.955Z,66.71
2023-02-23T00:34:51.430Z,66.93
2023-02-23T00:40:14.724Z,67.43
2023-02-23T00:45:36.759Z,67.24
2023-02-23T00:51:04.164Z,67.11
2023-02-23T00:56:25.609Z,67.08
2023-02-23T01:01:46.297Z,67.00
2023-02-23T01:07:07.046Z,67.33
2023-02-23T01:12:27.767Z,66.95
2023-02-23T01:17:48.584Z,67.36
2023-02-23T01:23:14.486Z,67.31
2023-02-23T01:28:35.346Z,67.28
2023-02-23T01:34:01.813Z,67.34
2023-02-23T01:39:24.411Z,67.42
2023-02-23T01:44:44.889Z,67.03
2023-02-23T01:50:06.582Z,67.23
2023-02-23T01:55:29.307Z,67.28
2023-02-23T02:01:03.083Z,67.03
2023-02-23T02:06:29.479Z,67.31
2023-02-23T02:11:54.207Z,67.53
2023-02-23T02:18:01.017Z,67.54
2023-02-23T02:23:40.422Z,67.28
2023-02-23T02:29:31.356Z,66.97
2023-02-23T02:35:04.153Z,67.40
2023-02-23T02:40:56.552Z,67.36
2023-02-23T02:46:23.700Z,67.43
2023-02-23T02:52:00.946Z,67.84
2023-02-23T02:57:25.813Z,67.09
2023-02-23T03:03:05.399Z,67.61
2023-02-23T03:09:06.706Z,68.07
2023-02-23T03:15:02.470Z,68.21
2023-02-23T03:21:06.477Z,67.92
2023-02-23T03:26:54.505Z,67.94
2023-02-23T03:32:56.763Z,68.07
2023-02-23T03:38:36.278Z,67.82
2023-02-23T03:44:21.829Z,67.70
2023-02-23T03:50:02.269Z,67.88
2023-02-23T03:55:48.106Z,67.61
2023-02-23T04:01:30.013Z,67.40
2023-02-23T04:07:11.392Z,67.66
2023-02-23T04:12:50.753Z,67.40
2023-02-23T04:18:14.462Z,67.77
2023-02-23T04:23:37.582Z,67.73
2023-02-23T04:28:58.733Z,67.44
2023-02-23T04:34:19.550Z,67.58
2023-02-23T04:39:40.514Z,67.76
2023-02-23T04:45:01.606Z,67.65
2023-02-23T04:50:22.437Z,67.49
2023-02-23T04:55:43.475Z,67.32
2023-02-23T05:01:06.694Z,67.16
2023-02-23T05:06:27.671Z,67.53
2023-02-23T05:11:48.333Z,67.42
2023-02-23T05:17:09.094Z,67.32
2023-02-23T05:22:29.909Z,66.84
2023-02-23T05:27:50.954Z,67.15
2023-02-23T05:33:15.106Z,67.04
2023-02-23T05:38:36.991Z,66.70
2023-02-23T05:43:57.684Z,66.54
2023-02-23T05:49:18.194Z,66.92
2023-02-23T05:54:38.920Z,67.04
2023-02-23T05:59:59.492Z,67.29
2023-02-23T06:05:20.212Z,66.51
2023-02-23T06:10:40.881Z,66.72
2023-02-23T06:16:01.937Z,67.06
2023-02-23T06:21:23.019Z,67.49
2023-02-23T06:26:44.555Z,67.14
2023-02-23T06:32:06.162Z,68.88
2023-02-23T06:37:28.223Z,67.67
2023-02-23T06:42:49.001Z,67.39
2023-02-23T06:48:09.868Z,67.05
2023-02-23T06:53:30.876Z,67.36
2023-02-23T06:58:51.873Z,67.24
2023-02-23T07:04:14.299Z,67.50
2023-02-23T07:09:36.835Z,67.40
2023-02-23T07:14:57.808Z,68.01
2023-02-23T07:20:19.765Z,67.62
2023-02-23T07:25:40.638Z,68.45
2023-02-23T07:31:01.367Z,68.44
2023-02-23T07:36:23.485Z,68.17
2023-02-23T07:41:44.401Z,68.08
2023-02-23T07:47:13.566Z,68.29
2023-02-23T07:52:34.317Z,68.10
2023-02-23T07:57:54.946Z,68.18
2023-02-23T08:03:15.637Z,68.37
2023-02-23T08:08:36.292Z,68.49
2023-02-23T08:14:00.680Z,68.85
2023-02-23T08:19:24.615Z,68.82
2023-02-23T08:24:45.507Z,69.18
2023-02-23T08:30:09.806Z,68.34
2023-02-23T08:35:31.206Z,68.61
2023-02-23T08:40:52.056Z,68.42
2023-02-23T08:46:13.325Z,68.71
2023-02-23T08:51:35.062Z,68.47
2023-02-23T08:56:58.110Z,68.31
2023-02-23T09:02:19.195Z,68.11
2023-02-23T09:07:42.105Z,68.07
2023-02-23T09:13:03.010Z,68.01
2023-02-23T09:18:24.173Z,68.12
2023-02-23T09:23:49.800Z,68.25
2023-02-23T09:29:10.630Z,68.20
2023-02-23T09:34:32.392Z,67.58
2023-02-23T09:39:53.330Z,67.80
2023-02-23T09:45:17.072Z,67.45
2023-02-23T09:50:42.096Z,67.75
2023-02-23T09:56:09.486Z,67.37
2023-02-23T10:01:48.878Z,67.44
2023-02-23T10:07:18.918Z,67.85
2023-02-23T10:12:57.315Z,67.45
2023-02-23T10:18:17.850Z,67.08
2023-02-23T10:23:45.623Z,67.21
2023-02-23T10:29:20.947Z,67.39
2023-02-23T10:34:43.144Z,66.98
2023-02-23T10:40:06.055Z,66.84
2023-02-23T10:45:29.758Z,66.90
2023-02-23T10:50:53.803Z,67.03
2023-02-23T10:56:17.682Z,66.84
2023-02-23T11:02:01.021Z,67.11
2023-02-23T11:07:31.339Z,66.92
2023-02-23T11:12:52.061Z,66.64
2023-02-23T11:18:20.787Z,66.36
2023-02-23T11:23:42.063Z,66.84
2023-02-23T11:29:12.480Z,66.49
2023-02-23T11:34:35.509Z,66.82
2023-02-23T11:40:00.518Z,66.39
2023-02-23T11:45:24.318Z,66.47
2023-02-23T11:50:48.581Z,66.35
2023-02-23T11:56:13.696Z,66.36
2023-02-23T12:01:46.958Z,66.23
2023-02-23T12:07:46.408Z,66.26
2023-02-23T12:13:25.418Z,66.08
2023-02-23T12:19:00.801Z,66.44
2023-02-23T12:24:49.166Z,66.20
2023-02-23T12:30:27.719Z,65.71
2023-02-23T12:36:29.891Z,65.69
2023-02-23T12:42:17.696Z,65.72
2023-02-23T12:47:51.967Z,65.54
2023-02-23T12:53:18.080Z,65.59
2023-02-23T12:58:59.762Z,65.63
2023-02-23T13:04:48.540Z,65.66
2023-02-23T13:10:35.625Z,65.22
2023-02-23T13:16:08.854Z,65.42
2023-02-23T13:22:04.911Z,65.32
2023-02-23T13:27:38.916Z,65.32
2023-02-23T13:33:08.358Z,65.04
2023-02-23T13:38:39.300Z,65.09
2023-02-23T13:44:09.969Z,65.42
2023-02-23T13:49:58.115Z,65.05
2023-02-23T13:55:40.044Z,65.00
2023-02-23T14:01:20.530Z,65.25
2023-02-23T14:06:56.685Z,64.93
2023-02-23T14:12:24.924Z,65.06
2023-02-23T14:18:03.665Z,65.04
2023-02-23T14:23:24.426Z,65.52
2023-02-23T14:29:20.807Z,65.13
2023-02-23T14:34:51.618Z,65.21
2023-02-23T14:40:21.094Z,65.25
2023-02-23T14:45:42.027Z,68.27
2023-02-23T14:51:23.380Z,67.27
2023-02-23T14:56:49.453Z,65.98
2023-02-23T15:02:16.974Z,65.27
2023-02-23T15:07:41.173Z,64.29
2023-02-23T15:13:10.537Z,64.59
2023-02-23T15:18:39.371Z,64.91
2023-02-23T15:24:05.364Z,65.02
2023-02-23T15:29:32.461Z,65.08
2023-02-23T15:34:56.014Z,65.43
2023-02-23T15:40:20.814Z,65.40
2023-02-23T15:46:06.106Z,65.69
2023-02-23T15:51:50.819Z,65.70
2023-02-23T15:57:21.396Z,65.58
2023-02-23T16:02:44.661Z,65.46
2023-02-23T16:08:22.729Z,65.59
2023-02-23T16:13:45.921Z,65.47
2023-02-23T16:19:06.730Z,65.87
2023-02-23T16:24:29.241Z,66.07
2023-02-23T16:30:00.379Z,65.56
2023-02-23T16:35:21.080Z,66.04
2023-02-23T16:40:42.312Z,65.98
2023-02-23T16:46:03.143Z,65.60
2023-02-23T16:51:24.686Z,66.01
2023-02-23T16:56:47.122Z,65.85
2023-02-23T17:02:13.879Z,66.02
2023-02-23T17:07:34.708Z,66.01
2023-02-23T17:13:03.210Z,66.43
2023-02-23T17:18:27.014Z,65.65
2023-02-23T17:23:51.172Z,66.09
2023-02-23T17:29:11.868Z,66.48
2023-02-23T17:34:32.723Z,66.77
2023-02-23T17:39:53.411Z,66.40
2023-02-23T17:45:14.094Z,66.25
2023-02-23T17:50:34.702Z,66.19
2023-02-23T17:55:55.981Z,66.66
2023-02-23T18:01:18.163Z,66.40
2023-02-23T18:06:38.928Z,66.44
2023-02-23T18:11:59.692Z,66.77
2023-02-23T18:17:20.455Z,66.76
2023-02-23T18:22:42.653Z,66.32
2023-02-23T18:28:03.489Z,66.51
2023-02-23T18:33:24.458Z,66.95
2023-02-23T18:38:45.969Z,66.94
2023-02-23T18:44:08.876Z,67.01
2023-02-23T18:49:29.582Z,67.38
2023-02-23T18:54:50.632Z,67.09
2023-02-23T19:00:14.544Z,66.86
2023-02-23T19:05:37.591Z,66.96
2023-02-23T19:10:58.335Z,67.07
2023-02-23T19:16:20.033Z,67.02
2023-02-23T19:21:41.039Z,66.83
2023-02-23T19:27:02.023Z,67.31
2023-02-23T19:32:23.232Z,67.35
2023-02-23T19:37:49.177Z,67.79
2023-02-23T19:43:11.900Z,67.38
2023-02-23T19:48:33.517Z,67.61
2023-02-23T19:53:57.200Z,67.83
2023-02-23T19:59:18.308Z,67.61
2023-02-23T20:04:39.171Z,68.16
2023-02-23T20:10:00.159Z,68.51
2023-02-23T20:15:20.773Z,68.14
2023-02-23T20:20:42.010Z,68.21
2023-02-23T20:26:07.374Z,67.66
2023-02-23T20:31:32.234Z,68.09
2023-02-23T20:36:55.272Z,68.11
2023-02-23T20:42:16.174Z,68.32
2023-02-23T20:47:38.130Z,68.72
2023-02-23T20:53:01.181Z,68.65
2023-02-23T20:58:25.730Z,68.69
2023-02-23T21:03:46.747Z,68.40
2023-02-23T21:09:12.826Z,68.35
2023-02-23T21:14:35.474Z,68.46
2023-02-23T21:19:56.699Z,68.31
2023-02-23T21:25:19.716Z,68.63
2023-02-23T21:30:40.516Z,68.75
2023-02-23T21:36:01.156Z,68.85
2023-02-23T21:41:22.397Z,68.75
2023-02-23T21:46:43.221Z,68.98
2023-02-23T21:52:04.440Z,69.15
2023-02-23T21:57:28.308Z,69.32
2023-02-23T22:02:51.384Z,69.42
2023-02-23T22:08:15.872Z,69.34
2023-02-23T22:13:37.214Z,69.09
2023-02-23T22:18:58.461Z,69.26
2023-02-23T22:24:19.120Z,69.33
2023-02-23T22:29:39.930Z,69.45
2023-02-23T22:35:01.208Z,69.37
2023-02-23T22:40:21.969Z,69.32
2023-02-23T22:45:43.987Z,69.43
2023-02-23T22:51:05.493Z,69.65
2023-02-23T22:56:26.219Z,69.61
2023-02-23T23:01:49.022Z,69.64
2023-02-23T23:07:10.708Z,70.20
2023-02-23T23:12:34.307Z,69.78
2023-02-23T23:17:54.917Z,69.44
2023-02-23T23:23:17.233Z,69.80
2023-02-23T23:28:40.432Z,70.07
2023-02-23T23:34:09.334Z,69.65
2023-02-23T23:39:30.264Z,69.41
2023-02-23T23:44:50.901Z,69.71
2023-02-23T23:50:14.120Z,69.72
2023-02-23T23:55:36.217Z,69.43
